Time;durP1;ratioP1;P1;durP2;ratioP2;P2;SDS_P1;SDS_P2;PMS_P1;PMS_P2;Temp;Humidity;BMP_temperature;BMP_pressure;BME280_temperature;BME280_humidity;BME280_pressure;Samples;Min_cycle;Max_cycle;Signal;HPM_P1;HPM_P2
2023/09/28 00:01:47;;;;;;;17.17;3.40;;;;;;;;;;5030650;28;20507;-80
2023/09/28 00:04:14;;;;;;;16.52;3.15;;;;;;;;;;5033083;28;20422;-79
2023/09/28 00:06:42;;;;;;;18.30;3.75;;;;;;;;;;5039449;28;20418;-80
2023/09/28 00:09:10;;;;;;;15.82;3.10;;;;;;;;;;5031333;28;20408;-80
2023/09/28 00:11:37;;;;;;;15.88;3.40;;;;;;;;;;5024176;28;20464;-79
2023/09/28 00:14:04;;;;;;;16.30;3.30;;;;;;;;;;5037739;28;20429;-80
2023/09/28 00:16:31;;;;;;;16.80;3.30;;;;;;;;;;5033284;28;20469;-80
2023/09/28 00:18:58;;;;;;;17.83;3.50;;;;;;;;;;5039234;28;20419;-79
2023/09/28 00:21:26;;;;;;;17.77;3.50;;;;;;;;;;5033370;28;20414;-80
2023/09/28 00:23:54;;;;;;;16.83;3.33;;;;;;;;;;5033018;28;20439;-79
2023/09/28 00:26:22;;;;;;;18.00;3.50;;;;;;;;;;5022338;28;20413;-79
2023/09/28 00:28:50;;;;;;;17.15;3.45;;;;;;;;;;5031680;28;20418;-80
2023/09/28 00:31:18;;;;;;;15.90;3.10;;;;;;;;;;5023044;28;20903;-79
2023/09/28 00:33:44;;;;;;;16.20;3.30;;;;;;;;;;5045276;28;20944;-80
2023/09/28 00:36:11;;;;;;;16.55;3.10;;;;;;;;;;5030813;28;20408;-80
2023/09/28 00:38:37;;;;;;;16.10;3.30;;;;;;;;;;5031268;28;20451;-80
2023/09/28 00:41:06;;;;;;;16.23;3.40;;;;;;;;;;5032678;28;20411;-80
2023/09/28 00:43:32;;;;;;;17.45;3.42;;;;;;;;;;5020479;28;20776;-79
2023/09/28 00:45:59;;;;;;;16.03;3.47;;;;;;;;;;5027806;28;20457;-79
2023/09/28 00:48:27;;;;;;;19.42;3.33;;;;;;;;;;5031520;28;20522;-80
2023/09/28 00:50:54;;;;;;;15.95;3.28;;;;;;;;;;5031556;28;20426;-80
2023/09/28 00:53:21;;;;;;;17.35;3.45;;;;;;;;;;5030410;28;20466;-79
2023/09/28 00:55:48;;;;;;;16.47;3.33;;;;;;;;;;5020404;28;20500;-79
2023/09/28 00:58:16;;;;;;;17.00;3.80;;;;;;;;;;5029603;28;20410;-80
2023/09/28 01:00:42;;;;;;;16.50;3.20;;;;;;;;;;5038188;28;20414;-79
2023/09/28 01:03:11;;;;;;;17.85;3.50;;;;;;;;;;5032729;28;20415;-80
2023/09/28 01:05:40;;;;;;;17.85;3.40;;;;;;;;;;5031693;28;20403;-80
2023/09/28 01:08:08;;;;;;;17.17;3.50;;;;;;;;;;5031137;28;20423;-80
2023/09/28 01:10:36;;;;;;;16.67;3.40;;;;;;;;;;5017464;28;21234;-80
2023/09/28 01:13:10;;;;;;;16.38;3.17;;;;;;;;;;5031515;28;20431;-77
2023/09/28 01:15:39;;;;;;;16.17;3.60;;;;;;;;;;5024346;28;20425;-81
2023/09/28 01:18:09;;;;;;;16.73;3.47;;;;;;;;;;5039309;28;20499;-80
2023/09/28 01:20:37;;;;;;;16.10;3.20;;;;;;;;;;5030672;28;20906;-78
2023/09/28 01:23:06;;;;;;;15.68;3.20;;;;;;;;;;5037834;28;21443;-79
2023/09/28 01:25:32;;;;;;;16.40;3.50;;;;;;;;;;5024513;28;20448;-79
2023/09/28 01:27:59;;;;;;;19.70;3.40;;;;;;;;;;5037378;28;20419;-78
2023/09/28 01:30:26;;;;;;;17.10;3.30;;;;;;;;;;5039305;28;20465;-79
2023/09/28 01:32:53;;;;;;;17.13;3.47;;;;;;;;;;5030108;28;20421;-79
2023/09/28 01:35:20;;;;;;;16.33;3.20;;;;;;;;;;5039367;28;20403;-79
2023/09/28 01:37:52;;;;;;;16.80;2.70;;;;;;;;;;5035777;28;20431;-79
2023/09/28 01:40:20;;;;;;;17.33;3.78;;;;;;;;;;5046799;28;20415;-79
2023/09/28 01:42:47;;;;;;;18.27;3.53;;;;;;;;;;5031115;28;20406;-80
2023/09/28 01:45:15;;;;;;;15.43;2.80;;;;;;;;;;5028689;28;20446;-78
2023/09/28 01:47:41;;;;;;;16.58;3.20;;;;;;;;;;5033535;28;20415;-80
2023/09/28 01:50:08;;;;;;;16.23;3.13;;;;;;;;;;5028975;28;20437;-81
2023/09/28 01:52:35;;;;;;;16.48;3.30;;;;;;;;;;5030593;28;20423;-79
2023/09/28 01:55:02;;;;;;;16.10;3.20;;;;;;;;;;5046802;28;20419;-80
2023/09/28 01:57:31;;;;;;;17.40;3.03;;;;;;;;;;5019773;28;20407;-78
2023/09/28 02:00:00;;;;;;;17.77;3.20;;;;;;;;;;5013560;28;20482;-79
2023/09/28 02:02:27;;;;;;;17.50;2.95;;;;;;;;;;5030335;28;20465;-80
2023/09/28 02:04:53;;;;;;;16.35;2.85;;;;;;;;;;5037177;28;20505;-80
2023/09/28 02:07:20;;;;;;;18.02;3.30;;;;;;;;;;5029661;28;20423;-80
2023/09/28 02:09:47;;;;;;;15.88;3.20;;;;;;;;;;5036628;28;20419;-79
2023/09/28 02:12:13;;;;;;;16.85;3.10;;;;;;;;;;5030009;28;20875;-77
2023/09/28 02:14:41;;;;;;;17.10;3.50;;;;;;;;;;5036942;28;20927;-80
2023/09/28 02:17:08;;;;;;;16.20;3.00;;;;;;;;;;5044194;28;20426;-80
2023/09/28 02:19:34;;;;;;;16.77;3.10;;;;;;;;;;5036617;28;20973;-79
2023/09/28 02:22:02;;;;;;;18.73;3.13;;;;;;;;;;5037353;28;20431;-80
2023/09/28 02:24:29;;;;;;;16.95;3.38;;;;;;;;;;5030695;28;20406;-80
2023/09/28 02:26:55;;;;;;;15.90;3.20;;;;;;;;;;5028687;28;20418;-80
2023/09/28 02:29:22;;;;;;;16.58;3.60;;;;;;;;;;5029569;28;20411;-80
2023/09/28 02:31:50;;;;;;;18.45;3.60;;;;;;;;;;5029112;28;20411;-78
2023/09/28 02:34:17;;;;;;;16.20;2.80;;;;;;;;;;5035739;28;20508;-80
2023/09/28 02:36:43;;;;;;;18.42;3.25;;;;;;;;;;5028530;28;20423;-79
2023/09/28 02:39:10;;;;;;;16.25;2.97;;;;;;;;;;5017617;28;20429;-80
2023/09/28 02:41:36;;;;;;;16.92;3.00;;;;;;;;;;5046156;28;20522;-80
2023/09/28 02:44:04;;;;;;;16.83;3.00;;;;;;;;;;5034269;28;20449;-79
2023/09/28 02:46:32;;;;;;;16.30;3.10;;;;;;;;;;5030607;28;20411;-80
2023/09/28 02:49:01;;;;;;;17.03;3.23;;;;;;;;;;5037605;28;20430;-79
2023/09/28 02:51:27;;;;;;;16.50;3.28;;;;;;;;;;5030139;28;20407;-78
2023/09/28 02:53:54;;;;;;;16.30;3.50;;;;;;;;;;5027502;28;20423;-80
2023/09/28 02:56:21;;;;;;;16.20;3.47;;;;;;;;;;5045288;28;20450;-80
2023/09/28 02:58:48;;;;;;;17.13;3.20;;;;;;;;;;5019417;28;20407;-80
2023/09/28 03:01:14;;;;;;;18.40;3.30;;;;;;;;;;5033284;28;20505;-80
2023/09/28 03:03:42;;;;;;;16.75;3.60;;;;;;;;;;5028934;28;20427;-80
2023/09/28 03:06:10;;;;;;;16.85;3.13;;;;;;;;;;5037509;28;20469;-80
2023/09/28 03:08:37;;;;;;;18.00;3.40;;;;;;;;;;5029313;28;20454;-80
2023/09/28 03:11:03;;;;;;;16.40;3.25;;;;;;;;;;5029313;28;20454;-79
2023/09/28 03:13:30;;;;;;;16.70;3.42;;;;;;;;;;5030598;28;20750;-80
2023/09/28 03:15:57;;;;;;;17.42;3.75;;;;;;;;;;5036953;28;20489;-81
2023/09/28 03:18:24;;;;;;;17.92;3.80;;;;;;;;;;5019952;28;20529;-79
2023/09/28 03:20:50;;;;;;;16.77;3.35;;;;;;;;;;5033103;28;20822;-80
2023/09/28 03:23:18;;;;;;;17.10;3.60;;;;;;;;;;5037807;28;20419;-78
2023/09/28 03:25:45;;;;;;;17.13;3.85;;;;;;;;;;5046133;28;20414;-79
2023/09/28 03:28:13;;;;;;;16.85;3.80;;;;;;;;;;5033109;28;20422;-80
2023/09/28 03:30:40;;;;;;;16.65;3.67;;;;;;;;;;5034388;28;20410;-78
2023/09/28 03:33:06;;;;;;;18.52;3.50;;;;;;;;;;5034097;28;20438;-79
2023/09/28 03:35:33;;;;;;;19.50;4.33;;;;;;;;;;5033104;28;20417;-78
2023/09/28 03:37:59;;;;;;;16.40;3.20;;;;;;;;;;5032579;28;20510;-80
2023/09/28 03:40:33;;;;;;;16.88;3.60;;;;;;;;;;5033913;28;20407;-81
2023/09/28 03:43:02;;;;;;;19.02;4.25;;;;;;;;;;5034103;28;20452;-80
2023/09/28 03:45:29;;;;;;;16.80;3.55;;;;;;;;;;5041130;28;20411;-80
2023/09/28 03:47:56;;;;;;;18.08;3.85;;;;;;;;;;4999856;28;20429;-78
2023/09/28 03:50:23;;;;;;;16.33;3.70;;;;;;;;;;5033619;28;20415;-79
2023/09/28 03:52:50;;;;;;;16.98;3.70;;;;;;;;;;5033850;28;20407;-80
2023/09/28 03:55:18;;;;;;;16.60;3.63;;;;;;;;;;5031092;28;20488;-81
2023/09/28 03:57:46;;;;;;;17.00;3.85;;;;;;;;;;5023567;28;20461;-81
2023/09/28 04:00:14;;;;;;;16.80;4.00;;;;;;;;;;5033001;28;20521;-80
2023/09/28 04:02:42;;;;;;;16.80;3.60;;;;;;;;;;5038873;28;20438;-80
2023/09/28 04:05:09;;;;;;;17.80;3.50;;;;;;;;;;5037671;28;20409;-80
2023/09/28 04:07:36;;;;;;;17.45;3.83;;;;;;;;;;5033336;28;20834;-80
2023/09/28 04:10:03;;;;;;;17.00;3.50;;;;;;;;;;5033371;28;21172;-79
2023/09/28 04:12:30;;;;;;;16.98;3.80;;;;;;;;;;5033468;28;20469;-79
2023/09/28 04:14:57;;;;;;;19.10;3.70;;;;;;;;;;5022280;28;20419;-80
2023/09/28 04:17:24;;;;;;;16.83;3.70;;;;;;;;;;5033479;28;20414;-80
2023/09/28 04:19:52;;;;;;;17.40;3.78;;;;;;;;;;5032368;28;20407;-80
2023/09/28 04:22:19;;;;;;;19.50;4.22;;;;;;;;;;5024699;28;20503;-81
2023/09/28 04:24:45;;;;;;;17.50;3.92;;;;;;;;;;5031494;28;20456;-80
2023/09/28 04:27:12;;;;;;;20.85;4.50;;;;;;;;;;5035524;28;20407;-80
2023/09/28 04:29:38;;;;;;;18.80;3.92;;;;;;;;;;5039195;28;20531;-80
2023/09/28 04:32:06;;;;;;;17.33;3.78;;;;;;;;;;5031835;28;20430;-80
2023/09/28 04:34:33;;;;;;;20.10;4.07;;;;;;;;;;5030669;28;20885;-78
2023/09/28 04:37:00;;;;;;;18.70;4.53;;;;;;;;;;5031915;28;20518;-80
2023/09/28 04:39:27;;;;;;;18.90;4.90;;;;;;;;;;5037837;28;20426;-80
2023/09/28 04:41:54;;;;;;;18.00;4.60;;;;;;;;;;5022040;28;20425;-79
2023/09/28 04:44:21;;;;;;;18.67;4.80;;;;;;;;;;5032847;28;20422;-79
2023/09/28 04:46:50;;;;;;;21.75;5.60;;;;;;;;;;5026042;28;20415;-79
2023/09/28 04:49:18;;;;;;;17.67;4.30;;;;;;;;;;5018021;28;20427;-80
2023/09/28 04:51:45;;;;;;;18.00;4.28;;;;;;;;;;5032452;28;20486;-79
2023/09/28 04:54:12;;;;;;;18.83;4.68;;;;;;;;;;5031682;28;20492;-80
2023/09/28 04:56:39;;;;;;;18.88;4.57;;;;;;;;;;5019927;28;20422;-80
2023/09/28 04:59:05;;;;;;;17.77;4.45;;;;;;;;;;5029568;28;20525;-79
2023/09/28 05:01:32;;;;;;;19.15;4.40;;;;;;;;;;5035962;28;20502;-80
2023/09/28 05:03:59;;;;;;;19.52;4.10;;;;;;;;;;5030505;28;20768;-79
2023/09/28 05:06:27;;;;;;;16.80;3.97;;;;;;;;;;5048325;28;20477;-80
2023/09/28 05:08:54;;;;;;;19.07;4.33;;;;;;;;;;5020622;28;20836;-80
2023/09/28 05:11:20;;;;;;;17.00;3.83;;;;;;;;;;5033317;28;20413;-79
2023/09/28 05:13:47;;;;;;;22.90;4.40;;;;;;;;;;5033344;28;20410;-79
2023/09/28 05:16:14;;;;;;;18.00;4.30;;;;;;;;;;5039412;28;20768;-79
2023/09/28 05:18:42;;;;;;;17.90;4.32;;;;;;;;;;5036620;28;20427;-79
2023/09/28 05:21:08;;;;;;;17.27;4.30;;;;;;;;;;5032945;28;20414;-80
2023/09/28 05:23:37;;;;;;;18.52;4.20;;;;;;;;;;5032820;28;20418;-79
2023/09/28 05:26:03;;;;;;;18.70;4.30;;;;;;;;;;5031575;28;20422;-80
2023/09/28 05:28:30;;;;;;;17.98;4.30;;;;;;;;;;5038197;28;21060;-79
2023/09/28 05:30:57;;;;;;;17.95;4.55;;;;;;;;;;5030458;28;20782;-80
2023/09/28 05:33:24;;;;;;;17.95;4.63;;;;;;;;;;5028697;28;20407;-79
2023/09/28 05:35:50;;;;;;;20.10;5.25;;;;;;;;;;5031624;28;20415;-80
2023/09/28 05:38:17;;;;;;;17.50;4.45;;;;;;;;;;5040137;28;20404;-79
2023/09/28 05:40:46;;;;;;;18.03;4.73;;;;;;;;;;5032327;28;20414;-80
2023/09/28 05:43:12;;;;;;;19.80;4.70;;;;;;;;;;5032324;28;20407;-80
2023/09/28 05:45:39;;;;;;;18.30;4.40;;;;;;;;;;5029271;28;20415;-80
2023/09/28 05:48:05;;;;;;;18.30;4.57;;;;;;;;;;5031539;28;20953;-80
2023/09/28 05:50:32;;;;;;;21.70;4.78;;;;;;;;;;5032500;28;20506;-81
2023/09/28 05:53:00;;;;;;;18.20;4.90;;;;;;;;;;5030968;28;20450;-79
2023/09/28 05:55:27;;;;;;;19.33;4.70;;;;;;;;;;5019616;28;20892;-80
2023/09/28 05:57:55;;;;;;;18.23;4.65;;;;;;;;;;5035047;28;20423;-80
2023/09/28 06:00:21;;;;;;;17.65;4.35;;;;;;;;;;5039521;28;20414;-80
2023/09/28 06:02:48;;;;;;;19.85;4.75;;;;;;;;;;5046416;28;20462;-80
2023/09/28 06:05:15;;;;;;;19.65;4.82;;;;;;;;;;5027488;28;20411;-79
2023/09/28 06:07:41;;;;;;;19.13;4.80;;;;;;;;;;5029106;28;20420;-78
2023/09/28 06:10:08;;;;;;;20.20;5.10;;;;;;;;;;5032774;28;20423;-80
2023/09/28 06:12:35;;;;;;;19.58;5.15;;;;;;;;;;5031825;28;20871;-80
2023/09/28 06:15:04;;;;;;;18.70;4.95;;;;;;;;;;5043134;28;20422;-80
2023/09/28 06:17:33;;;;;;;19.30;4.85;;;;;;;;;;5030646;28;20844;-80
2023/09/28 06:20:00;;;;;;;20.00;5.57;;;;;;;;;;5030950;28;21002;-79
2023/09/28 06:22:28;;;;;;;18.23;4.40;;;;;;;;;;5031728;28;20415;-79
2023/09/28 06:24:55;;;;;;;20.77;5.10;;;;;;;;;;5030245;28;20422;-81
2023/09/28 06:27:25;;;;;;;19.15;5.00;;;;;;;;;;5030422;28;20779;-80
2023/09/28 06:29:53;;;;;;;20.10;5.20;;;;;;;;;;5026774;28;20554;-81
2023/09/28 06:32:22;;;;;;;20.87;5.30;;;;;;;;;;5031584;28;20417;-80
2023/09/28 06:34:49;;;;;;;21.42;5.28;;;;;;;;;;5037535;28;20967;-80
2023/09/28 06:37:15;;;;;;;19.40;5.00;;;;;;;;;;5028726;28;20770;-80
2023/09/28 06:39:42;;;;;;;19.08;4.60;;;;;;;;;;5041745;28;20826;-80
2023/09/28 06:42:09;;;;;;;19.00;4.90;;;;;;;;;;5030367;28;20418;-80
2023/09/28 06:44:57;;;;;;;19.58;4.90;;;;;;;;;;5028970;28;20465;-77
2023/09/28 06:47:26;;;;;;;18.88;5.00;;;;;;;;;;5030105;28;20411;-80
2023/09/28 06:50:04;;;;;;;18.02;4.43;;;;;;;;;;5044314;28;20788;-80
2023/09/28 06:52:32;;;;;;;19.80;5.10;;;;;;;;;;5031808;28;20523;-80
2023/09/28 06:54:59;;;;;;;19.17;5.05;;;;;;;;;;5026918;28;20407;-78
2023/09/28 06:57:27;;;;;;;19.73;5.13;;;;;;;;;;5018672;28;20485;-77
2023/09/28 06:59:54;;;;;;;20.98;5.07;;;;;;;;;;5015742;28;20423;-80
2023/09/28 07:02:20;;;;;;;20.83;5.40;;;;;;;;;;5046635;28;20411;-79
2023/09/28 07:04:48;;;;;;;17.98;5.25;;;;;;;;;;5021530;28;20492;-79
2023/09/28 07:07:17;;;;;;;21.77;4.70;;;;;;;;;;5035719;28;20414;-80
2023/09/28 07:09:44;;;;;;;20.75;4.80;;;;;;;;;;5023160;28;20422;-79
2023/09/28 07:12:23;;;;;;;19.50;4.40;;;;;;;;;;5023502;28;20847;-80
2023/09/28 07:14:49;;;;;;;19.60;4.80;;;;;;;;;;5034270;28;20442;-80
2023/09/28 07:17:16;;;;;;;20.40;4.75;;;;;;;;;;5035019;28;20410;-79
2023/09/28 07:19:43;;;;;;;22.25;5.32;;;;;;;;;;5047294;28;20497;-80
2023/09/28 07:22:12;;;;;;;18.50;4.45;;;;;;;;;;5044659;28;20858;-78
2023/09/28 07:24:41;;;;;;;19.70;4.68;;;;;;;;;;5019145;28;20423;-79
2023/09/28 07:27:07;;;;;;;18.13;4.40;;;;;;;;;;5033550;28;20406;-81
2023/09/28 07:29:34;;;;;;;19.90;4.95;;;;;;;;;;5031146;28;20427;-79
2023/09/28 07:32:01;;;;;;;17.60;4.03;;;;;;;;;;5034716;28;20529;-80
2023/09/28 07:34:27;;;;;;;18.20;4.20;;;;;;;;;;5034509;28;20410;-80
2023/09/28 07:36:54;;;;;;;20.53;3.70;;;;;;;;;;5034847;28;20485;-80
2023/09/28 07:39:23;;;;;;;20.80;4.23;;;;;;;;;;5050197;28;20411;-81
2023/09/28 07:41:51;;;;;;;19.83;4.30;;;;;;;;;;5034646;28;20402;-81
2023/09/28 07:44:21;;;;;;;20.08;3.92;;;;;;;;;;5031766;28;20408;-78
2023/09/28 07:46:47;;;;;;;20.35;3.85;;;;;;;;;;5040471;28;20403;-78
2023/09/28 07:49:14;;;;;;;19.33;3.80;;;;;;;;;;5030643;28;20461;-79
2023/09/28 07:51:41;;;;;;;18.70;3.80;;;;;;;;;;5034478;28;20414;-81
2023/09/28 07:54:07;;;;;;;17.10;3.42;;;;;;;;;;5023953;28;20772;-79
2023/09/28 07:56:36;;;;;;;19.20;3.40;;;;;;;;;;5034594;28;21273;-79
2023/09/28 07:59:03;;;;;;;20.52;4.25;;;;;;;;;;5033181;28;20423;-80
2023/09/28 08:01:29;;;;;;;22.57;3.60;;;;;;;;;;5034389;28;20454;-81
2023/09/28 08:03:56;;;;;;;18.10;3.40;;;;;;;;;;5031707;28;20917;-80
2023/09/28 08:06:23;;;;;;;18.30;3.50;;;;;;;;;;5024577;28;20517;-80
2023/09/28 08:08:56;;;;;;;19.05;3.90;;;;;;;;;;5032829;28;20441;-80
2023/09/28 08:11:23;;;;;;;18.97;3.70;;;;;;;;;;5032220;28;20421;-80
2023/09/28 08:13:51;;;;;;;20.30;3.80;;;;;;;;;;5018635;28;20805;-80
2023/09/28 08:16:19;;;;;;;19.17;3.40;;;;;;;;;;5034311;28;20525;-79
2023/09/28 08:18:46;;;;;;;22.27;2.97;;;;;;;;;;5036902;28;20501;-81
2023/09/28 08:21:13;;;;;;;16.80;2.95;;;;;;;;;;5032655;28;20411;-79
2023/09/28 08:23:39;;;;;;;16.83;3.20;;;;;;;;;;5034070;28;20903;-79
2023/09/28 08:26:08;;;;;;;16.52;3.20;;;;;;;;;;5038613;28;20449;-81
2023/09/28 08:28:35;;;;;;;20.58;3.80;;;;;;;;;;5033571;28;20522;-79
2023/09/28 08:31:06;;;;;;;17.00;3.15;;;;;;;;;;5032565;28;20513;-79
2023/09/28 08:33:34;;;;;;;21.08;3.30;;;;;;;;;;5048318;28;20433;-80
2023/09/28 08:36:00;;;;;;;17.27;3.20;;;;;;;;;;5040134;28;20928;-79
2023/09/28 08:38:27;;;;;;;16.85;3.30;;;;;;;;;;5033580;28;20763;-79
2023/09/28 08:40:57;;;;;;;19.90;3.10;;;;;;;;;;5033775;28;20755;-80
2023/09/28 08:43:25;;;;;;;17.20;3.20;;;;;;;;;;5031769;28;20478;-80
2023/09/28 08:45:52;;;;;;;18.10;3.50;;;;;;;;;;5036716;28;20764;-80
2023/09/28 08:48:24;;;;;;;16.90;3.30;;;;;;;;;;5033584;28;20411;-80
2023/09/28 08:50:54;;;;;;;17.67;3.10;;;;;;;;;;5023740;28;20419;-79
2023/09/28 08:53:21;;;;;;;19.48;4.15;;;;;;;;;;5039796;28;20837;-79
2023/09/28 08:55:48;;;;;;;18.02;3.60;;;;;;;;;;5033121;28;20415;-80
2023/09/28 08:58:15;;;;;;;17.98;3.47;;;;;;;;;;5033472;28;20435;-79
2023/09/28 09:00:42;;;;;;;17.63;3.15;;;;;;;;;;5022262;28;20761;-79
2023/09/28 09:03:09;;;;;;;19.00;2.95;;;;;;;;;;5032007;28;20813;-79
2023/09/28 09:05:39;;;;;;;18.00;3.20;;;;;;;;;;5035440;28;20411;-79
2023/09/28 09:08:06;;;;;;;18.95;3.33;;;;;;;;;;5032959;28;20427;-79
2023/09/28 09:10:33;;;;;;;17.40;3.15;;;;;;;;;;5033210;28;20488;-79
2023/09/28 09:13:00;;;;;;;17.48;3.15;;;;;;;;;;5028251;28;20452;-79
2023/09/28 09:15:27;;;;;;;19.38;3.00;;;;;;;;;;5028904;28;20438;-80
2023/09/28 09:17:57;;;;;;;21.35;3.00;;;;;;;;;;5037794;28;20813;-80
2023/09/28 09:20:26;;;;;;;20.60;3.13;;;;;;;;;;5033011;28;20434;-80
2023/09/28 09:22:55;;;;;;;20.48;3.40;;;;;;;;;;5031821;28;20884;-81
2023/09/28 09:25:39;;;;;;;18.15;2.50;;;;;;;;;;5031211;28;20403;-80
2023/09/28 09:28:05;;;;;;;17.70;2.40;;;;;;;;;;5032058;28;20415;-79
2023/09/28 09:30:35;;;;;;;16.40;2.80;;;;;;;;;;5031357;28;20950;-78
2023/09/28 09:33:04;;;;;;;19.80;3.00;;;;;;;;;;5031393;28;20423;-78
2023/09/28 09:35:31;;;;;;;17.52;2.60;;;;;;;;;;5032479;28;20811;-80
2023/09/28 09:37:59;;;;;;;21.48;3.13;;;;;;;;;;5032491;28;20411;-80
2023/09/28 09:40:26;;;;;;;17.20;2.97;;;;;;;;;;5031188;28;20488;-79
2023/09/28 09:42:52;;;;;;;18.03;3.00;;;;;;;;;;5032407;28;20435;-79
2023/09/28 09:45:19;;;;;;;20.15;3.28;;;;;;;;;;5040664;28;20418;-79
2023/09/28 09:47:47;;;;;;;17.20;3.05;;;;;;;;;;5030741;28;20824;-77
2023/09/28 09:50:14;;;;;;;18.15;2.63;;;;;;;;;;5032296;28;20455;-80
2023/09/28 09:52:41;;;;;;;17.70;2.97;;;;;;;;;;5034085;28;20431;-80
2023/09/28 09:55:09;;;;;;;19.47;2.73;;;;;;;;;;5032268;28;20589;-79
2023/09/28 09:57:37;;;;;;;17.58;2.90;;;;;;;;;;5032053;28;20603;-80
2023/09/28 10:00:06;;;;;;;20.07;2.77;;;;;;;;;;5032018;28;20433;-79
2023/09/28 10:02:35;;;;;;;18.20;2.97;;;;;;;;;;5031479;28;20399;-80
2023/09/28 10:05:03;;;;;;;17.60;3.10;;;;;;;;;;5034354;28;20810;-80
2023/09/28 10:07:33;;;;;;;17.30;3.20;;;;;;;;;;5031333;28;20418;-81
2023/09/28 10:10:15;;;;;;;19.60;3.80;;;;;;;;;;5029119;28;20481;-80
2023/09/28 10:12:42;;;;;;;17.52;3.38;;;;;;;;;;5031697;28;20407;-80
2023/09/28 10:15:09;;;;;;;18.80;4.03;;;;;;;;;;5039598;28;20423;-79
2023/09/28 10:17:36;;;;;;;19.42;3.00;;;;;;;;;;5030434;28;20481;-79
2023/09/28 10:20:06;;;;;;;18.98;2.97;;;;;;;;;;5031596;28;20911;-76
2023/09/28 10:22:33;;;;;;;19.50;3.30;;;;;;;;;;5031189;28;20462;-77
2023/09/28 10:25:00;;;;;;;17.08;3.38;;;;;;;;;;5031659;28;20445;-80
2023/09/28 10:27:29;;;;;;;16.87;2.63;;;;;;;;;;5032029;28;20429;-79
2023/09/28 10:30:11;;;;;;;19.35;3.28;;;;;;;;;;5028330;28;20872;-80
2023/09/28 10:32:40;;;;;;;18.50;2.97;;;;;;;;;;5045718;28;20768;-78
2023/09/28 10:35:27;;;;;;;18.67;3.17;;;;;;;;;;5029790;28;20413;-79
2023/09/28 10:38:18;;;;;;;18.00;2.95;;;;;;;;;;5043282;28;20462;-78
2023/09/28 10:40:48;;;;;;;18.75;3.22;;;;;;;;;;5029416;28;20452;-79
2023/09/28 10:43:29;;;;;;;18.88;3.00;;;;;;;;;;5030220;28;20899;-79
2023/09/28 10:46:00;;;;;;;20.38;2.92;;;;;;;;;;5044965;28;20446;-78
2023/09/28 10:48:30;;;;;;;17.23;2.97;;;;;;;;;;5029799;28;20944;-79
2023/09/28 10:50:57;;;;;;;17.38;2.70;;;;;;;;;;5031368;28;20460;-79
2023/09/28 10:53:24;;;;;;;19.20;2.90;;;;;;;;;;5031019;28;20421;-79
2023/09/28 10:55:51;;;;;;;17.50;2.90;;;;;;;;;;5030980;28;20876;-80
2023/09/28 10:58:17;;;;;;;18.80;3.03;;;;;;;;;;5040272;28;20424;-78
2023/09/28 11:00:45;;;;;;;16.98;3.40;;;;;;;;;;5030040;28;20411;-80
2023/09/28 11:03:12;;;;;;;16.10;2.83;;;;;;;;;;5036972;28;20429;-79
2023/09/28 11:05:39;;;;;;;18.48;2.70;;;;;;;;;;5029877;28;20408;-80
2023/09/28 11:08:08;;;;;;;15.80;2.30;;;;;;;;;;5031052;28;20418;-80
2023/09/28 11:10:35;;;;;;;18.25;2.60;;;;;;;;;;5031041;28;20925;-78
2023/09/28 11:13:02;;;;;;;19.60;3.05;;;;;;;;;;5030864;28;20414;-80
2023/09/28 11:15:29;;;;;;;16.42;2.50;;;;;;;;;;5031143;28;20891;-80
2023/09/28 11:17:57;;;;;;;18.27;2.83;;;;;;;;;;5041459;28;20425;-79
2023/09/28 11:20:24;;;;;;;18.60;2.28;;;;;;;;;;5030934;28;20411;-80
2023/09/28 11:22:54;;;;;;;16.50;2.80;;;;;;;;;;5025768;28;20410;-77
2023/09/28 11:25:21;;;;;;;16.48;2.58;;;;;;;;;;5029795;28;20421;-79
2023/09/28 11:28:08;;;;;;;16.67;2.70;;;;;;;;;;5030738;28;20875;-79
2023/09/28 11:30:36;;;;;;;16.70;2.90;;;;;;;;;;5033846;28;21143;-79
2023/09/28 11:33:05;;;;;;;16.85;3.00;;;;;;;;;;5027384;28;20425;-78
2023/09/28 11:35:34;;;;;;;18.73;3.07;;;;;;;;;;5030849;28;20415;-78
2023/09/28 11:38:02;;;;;;;17.80;2.60;;;;;;;;;;5029729;28;20896;-80
2023/09/28 11:40:30;;;;;;;19.63;2.95;;;;;;;;;;5030896;28;20522;-79
2023/09/28 11:42:57;;;;;;;16.17;2.55;;;;;;;;;;5028587;28;20417;-78
2023/09/28 11:45:27;;;;;;;20.27;4.45;;;;;;;;;;5030528;28;20799;-79
2023/09/28 11:47:53;;;;;;;18.00;3.03;;;;;;;;;;5031898;28;20408;-79
2023/09/28 11:50:23;;;;;;;17.90;2.40;;;;;;;;;;5033320;28;20505;-79
2023/09/28 11:52:51;;;;;;;16.87;2.70;;;;;;;;;;5033962;28;20402;-80
2023/09/28 11:55:17;;;;;;;17.20;2.80;;;;;;;;;;5042402;28;20502;-79
2023/09/28 11:57:48;;;;;;;17.95;2.60;;;;;;;;;;5033178;28;20454;-80
2023/09/28 12:00:19;;;;;;;17.38;2.60;;;;;;;;;;5034340;28;20494;-80
2023/09/28 12:02:46;;;;;;;16.70;2.80;;;;;;;;;;5035153;28;20904;-79
2023/09/28 12:05:13;;;;;;;18.05;2.83;;;;;;;;;;5033764;28;20468;-80
2023/09/28 12:07:41;;;;;;;19.10;2.90;;;;;;;;;;5028768;28;20422;-79
2023/09/28 12:10:09;;;;;;;19.45;3.10;;;;;;;;;;5018282;28;20435;-80
2023/09/28 12:12:36;;;;;;;17.08;2.50;;;;;;;;;;5034249;28;20418;-79
2023/09/28 12:15:06;;;;;;;17.30;3.00;;;;;;;;;;5046856;28;20449;-78
2023/09/28 12:17:34;;;;;;;19.20;3.10;;;;;;;;;;5031166;28;20407;-82
2023/09/28 12:20:02;;;;;;;17.63;2.63;;;;;;;;;;5040378;28;20423;-80
2023/09/28 12:22:29;;;;;;;17.23;2.90;;;;;;;;;;5033716;28;20415;-80
2023/09/28 12:24:57;;;;;;;17.73;2.60;;;;;;;;;;5044623;28;20454;-80
2023/09/28 12:27:24;;;;;;;16.43;2.50;;;;;;;;;;5032370;28;20403;-79
2023/09/28 12:29:50;;;;;;;16.77;2.60;;;;;;;;;;5038795;28;20418;-79
2023/09/28 12:32:17;;;;;;;18.17;3.08;;;;;;;;;;5033557;28;20850;-78
2023/09/28 12:34:44;;;;;;;17.90;2.85;;;;;;;;;;5030232;28;20439;-79
2023/09/28 12:37:11;;;;;;;16.70;3.10;;;;;;;;;;5033106;28;20446;-79
2023/09/28 12:39:38;;;;;;;16.45;2.90;;;;;;;;;;5033693;28;20506;-77
2023/09/28 12:42:05;;;;;;;21.00;3.00;;;;;;;;;;5020064;28;20407;-80
2023/09/28 12:44:33;;;;;;;17.45;3.00;;;;;;;;;;5033365;28;20415;-78
2023/09/28 12:47:00;;;;;;;15.80;2.65;;;;;;;;;;5028053;28;20467;-79
2023/09/28 12:49:27;;;;;;;18.77;2.93;;;;;;;;;;5031990;28;20880;-79
2023/09/28 12:51:54;;;;;;;18.00;2.90;;;;;;;;;;5032260;28;20419;-79
2023/09/28 12:54:20;;;;;;;17.58;2.58;;;;;;;;;;5031466;28;20422;-79
2023/09/28 12:56:47;;;;;;;18.40;2.63;;;;;;;;;;5048126;28;20427;-78
2023/09/28 12:59:15;;;;;;;18.33;2.83;;;;;;;;;;5032906;28;20772;-77
2023/09/28 13:01:42;;;;;;;15.35;2.60;;;;;;;;;;5048044;28;20395;-79
2023/09/28 13:04:09;;;;;;;17.70;2.40;;;;;;;;;;5033062;28;20442;-79
2023/09/28 13:06:36;;;;;;;17.48;2.65;;;;;;;;;;5030604;28;20507;-79
2023/09/28 13:09:06;;;;;;;18.60;2.87;;;;;;;;;;5031790;28;20423;-79
2023/09/28 13:11:33;;;;;;;18.85;2.65;;;;;;;;;;5031481;28;20423;-78
2023/09/28 13:14:00;;;;;;;16.08;2.80;;;;;;;;;;5031550;28;20419;-76
2023/09/28 13:16:29;;;;;;;18.37;2.90;;;;;;;;;;5037859;28;20465;-79
2023/09/28 13:18:57;;;;;;;20.10;2.90;;;;;;;;;;5033428;28;20425;-79
2023/09/28 13:21:23;;;;;;;16.35;2.60;;;;;;;;;;5032330;28;20411;-78
2023/09/28 13:23:50;;;;;;;17.15;3.00;;;;;;;;;;5033017;28;20416;-79
2023/09/28 13:26:33;;;;;;;16.20;2.33;;;;;;;;;;5033362;28;20496;-79
2023/09/28 13:29:00;;;;;;;18.90;2.40;;;;;;;;;;5032021;28;20418;-78
2023/09/28 13:31:30;;;;;;;18.80;3.00;;;;;;;;;;5034019;28;20528;-80
2023/09/28 13:33:59;;;;;;;17.23;2.72;;;;;;;;;;5032011;28;20407;-79
2023/09/28 13:36:26;;;;;;;16.88;2.90;;;;;;;;;;5043322;28;20407;-79
2023/09/28 13:38:52;;;;;;;17.67;2.70;;;;;;;;;;5030545;28;20871;-77
2023/09/28 13:41:24;;;;;;;19.70;2.97;;;;;;;;;;5030652;28;20499;-80
2023/09/28 13:43:51;;;;;;;17.50;3.20;;;;;;;;;;5032319;28;20406;-78
2023/09/28 13:46:18;;;;;;;18.33;2.80;;;;;;;;;;5032286;28;20407;-80
2023/09/28 13:48:46;;;;;;;18.02;2.92;;;;;;;;;;5032274;28;20411;-77
2023/09/28 13:51:13;;;;;;;17.70;2.97;;;;;;;;;;5030577;28;20509;-79
2023/09/28 13:53:40;;;;;;;17.10;2.60;;;;;;;;;;5031171;28;20426;-81
2023/09/28 13:56:07;;;;;;;18.50;3.03;;;;;;;;;;5030722;28;20848;-77
2023/09/28 13:58:34;;;;;;;19.00;2.83;;;;;;;;;;5044756;28;20407;-80
2023/09/28 14:01:06;;;;;;;17.98;2.80;;;;;;;;;;5031443;28;20922;-78
2023/09/28 14:03:34;;;;;;;17.30;2.80;;;;;;;;;;5031774;28;20403;-79
2023/09/28 14:06:05;;;;;;;17.95;3.03;;;;;;;;;;5029570;28;20427;-79
2023/09/28 14:08:32;;;;;;;17.20;3.17;;;;;;;;;;5029807;28;20415;-79
2023/09/28 14:10:59;;;;;;;18.50;3.10;;;;;;;;;;5031638;28;20859;-78
2023/09/28 14:13:26;;;;;;;16.70;2.63;;;;;;;;;;5031775;28;20461;-78
2023/09/28 14:15:55;;;;;;;20.55;2.50;;;;;;;;;;5031619;28;20513;-78
2023/09/28 14:18:22;;;;;;;16.80;2.70;;;;;;;;;;5030486;28;20402;-78
2023/09/28 14:20:49;;;;;;;19.20;2.83;;;;;;;;;;5042603;28;20851;-75
2023/09/28 14:23:17;;;;;;;17.08;2.67;;;;;;;;;;5037378;28;20937;-77
2023/09/28 14:25:43;;;;;;;17.52;2.90;;;;;;;;;;5030067;28;21002;-78
2023/09/28 14:28:10;;;;;;;18.52;3.03;;;;;;;;;;5031667;28;20443;-77
2023/09/28 14:30:37;;;;;;;17.05;3.00;;;;;;;;;;5028639;28;20408;-76
2023/09/28 14:33:04;;;;;;;18.58;2.88;;;;;;;;;;5029952;28;20411;-80
2023/09/28 14:35:31;;;;;;;20.90;3.17;;;;;;;;;;5034923;28;20434;-79